createdAt,value
2018-09-28T00:00:35.757Z,5.4
2018-09-28T00:01:35.781Z,5.4
2018-09-28T00:03:35.842Z,5.8
2018-09-28T00:04:36.002Z,5.4
2018-09-28T00:05:36.075Z,5.7
2018-09-28T00:06:36.000Z,5.3
2018-09-28T00:07:36.105Z,5.3
2018-09-28T00:08:36.232Z,5.5
2018-09-28T00:09:36.446Z,4.9
2018-09-28T00:10:36.401Z,5.7
2018-09-28T00:11:36.520Z,5.4
2018-09-28T00:12:36.746Z,5.4
2018-09-28T00:13:36.729Z,5.7
2018-09-28T00:14:36.683Z,5.4
2018-09-28T00:15:36.784Z,5.1
2018-09-28T00:16:36.923Z,5.2
2018-09-28T00:17:37.150Z,5.4
2018-09-28T00:18:37.091Z,5.5
2018-09-28T00:19:37.216Z,5.2
2018-09-28T00:20:37.480Z,5.4
2018-09-28T00:21:37.550Z,5.6
2018-09-28T00:22:37.566Z,5.8
2018-09-28T00:23:37.741Z,6.1
2018-09-28T00:25:37.745Z,5.9
2018-09-28T00:26:37.819Z,5.4
2018-09-28T00:27:38.057Z,5.8
2018-09-28T00:28:37.976Z,5.9
2018-09-28T00:29:37.960Z,5.5
2018-09-28T00:30:55.940Z,5.7
2018-09-28T00:31:38.230Z,5.4
2018-09-28T00:32:38.284Z,6.3
2018-09-28T00:33:38.242Z,5.8
2018-09-28T00:34:56.419Z,5.8
2018-09-28T00:35:38.441Z,5.6
2018-09-28T00:36:38.389Z,6
2018-09-28T00:37:38.446Z,5.1
2018-09-28T00:38:38.733Z,5.2
2018-09-28T00:39:38.831Z,5.4
2018-09-28T00:40:39.884Z,5.8
2018-09-28T00:41:38.816Z,5.4
2018-09-28T00:42:38.970Z,5.4
2018-09-28T00:43:39.259Z,5.7
2018-09-28T00:44:39.384Z,5.4
2018-09-28T00:45:39.119Z,6.2
2018-09-28T00:46:39.352Z,5.9
2018-09-28T00:47:39.358Z,5.9
2018-09-28T00:48:39.285Z,5.8
2018-09-28T00:49:39.421Z,6
2018-09-28T00:50:39.474Z,5.9
2018-09-28T00:51:39.409Z,6.2
2018-09-28T00:52:39.547Z,5.9
2018-09-28T00:53:39.690Z,5.5
2018-09-28T00:54:39.896Z,6
2018-09-28T00:55:39.851Z,6.1
2018-09-28T00:56:57.857Z,6
2018-09-28T00:57:39.978Z,5.9
2018-09-28T00:59:40.353Z,5.4
2018-09-28T01:00:40.316Z,5.4
2018-09-28T01:01:40.453Z,5.4
2018-09-28T01:02:58.509Z,5.7
2018-09-28T01:03:40.668Z,6.3
2018-09-28T01:04:40.983Z,6.5
2018-09-28T01:05:40.805Z,5.7
2018-09-28T01:06:58.977Z,6.1
2018-09-28T01:07:41.073Z,6.2
2018-09-28T01:08:40.988Z,6.4
2018-09-28T01:09:41.154Z,6.2
2018-09-28T01:10:41.355Z,5.7
2018-09-28T01:11:41.396Z,6
2018-09-28T01:12:41.356Z,5.8
2018-09-28T01:13:41.435Z,6.4
2018-09-28T01:14:41.663Z,6
2018-09-28T01:15:41.687Z,5.8
2018-09-28T01:16:41.626Z,5.6
2018-09-28T01:17:41.758Z,6.2
2018-09-28T01:18:42.103Z,5.9
2018-09-28T01:20:41.940Z,6.2
2018-09-28T01:21:42.162Z,5.8
2018-09-28T01:22:42.192Z,5.6
2018-09-28T01:23:42.094Z,6.3
2018-09-28T01:24:42.195Z,5.5
2018-09-28T01:25:42.538Z,5.7
2018-09-28T01:26:42.410Z,6
2018-09-28T01:27:42.420Z,6.3
2018-09-28T01:28:42.536Z,6.9
2018-09-28T01:30:00.481Z,7.6
2018-09-28T01:30:42.651Z,7.7
2018-09-28T01:32:00.629Z,6.9
2018-09-28T01:32:42.709Z,7
2018-09-28T01:33:42.837Z,6.7
2018-09-28T01:35:42.892Z,6.5
2018-09-28T01:36:43.092Z,6.5
2018-09-28T01:37:43.267Z,6.6
2018-09-28T01:38:43.213Z,6.9
2018-09-28T01:39:43.348Z,6.6
2018-09-28T01:40:43.496Z,6.3
2018-09-28T01:41:43.593Z,6.2
2018-09-28T01:42:43.521Z,6.1
2018-09-28T01:43:43.655Z,6.6
2018-09-28T01:44:43.792Z,6
2018-09-28T01:45:43.939Z,7
2018-09-28T01:46:43.833Z,7.2
2018-09-28T01:47:43.931Z,6.7
2018-09-28T01:48:44.175Z,6
2018-09-28T01:49:44.339Z,6.2
2018-09-28T01:50:44.085Z,6.4
2018-09-28T01:52:02.141Z,6.6
2018-09-28T01:52:44.353Z,6.1
2018-09-28T01:53:44.361Z,5.7
2018-09-28T01:54:44.292Z,5.9
2018-09-28T01:55:44.398Z,6.5
2018-09-28T01:56:44.828Z,6.3
2018-09-28T01:57:44.574Z,6.2
2018-09-28T01:58:44.508Z,6.2
2018-09-28T01:59:44.660Z,6.1
2018-09-28T02:00:44.627Z,6.4
2018-09-28T02:01:44.826Z,5.8
2018-09-28T02:02:44.850Z,5.6
2018-09-28T02:03:46.169Z,5.8
2018-09-28T02:04:44.990Z,5.5
2018-09-28T02:05:44.916Z,5.5
2018-09-28T02:06:45.038Z,6
2018-09-28T02:07:45.266Z,5.9
2018-09-28T02:08:45.264Z,6.2
2018-09-28T02:09:45.193Z,5.9
2018-09-28T02:10:45.338Z,5.9
2018-09-28T02:11:45.606Z,6.2
2018-09-28T02:12:45.673Z,5.7
2018-09-28T02:13:45.624Z,6
2018-09-28T02:14:45.716Z,6.5
2018-09-28T02:15:45.912Z,6.4
2018-09-28T02:16:45.899Z,6.2
2018-09-28T02:17:45.838Z,5.9
2018-09-28T02:18:46.026Z,6.3
2018-09-28T02:20:47.144Z,5.5
2018-09-28T02:21:46.092Z,5.6
2018-09-28T02:22:46.413Z,5.7
2018-09-28T02:23:46.267Z,5.5
2018-09-28T02:24:46.219Z,5.9
2018-09-28T02:25:46.331Z,6.2
2018-09-28T02:26:46.511Z,5.9
2018-09-28T02:27:46.569Z,5.7
2018-09-28T02:28:46.505Z,5.9
2018-09-28T02:29:46.717Z,6.3
2018-09-28T02:30:46.757Z,5.9
2018-09-28T02:31:46.691Z,6
2018-09-28T02:32:46.880Z,6.2
2018-09-28T02:33:46.896Z,6.1
2018-09-28T02:35:04.771Z,6.6
2018-09-28T02:36:04.789Z,6.1
2018-09-28T02:36:46.921Z,6.1
2018-09-28T02:37:47.088Z,5.5
2018-09-28T02:38:47.118Z,6.3
2018-09-28T02:39:47.086Z,5.8
2018-09-28T02:40:47.194Z,5.7
2018-09-28T02:41:47.401Z,5.3
2018-09-28T02:43:05.469Z,6.3
2018-09-28T02:43:47.416Z,6.2
2018-09-28T02:44:47.528Z,5.6
2018-09-28T02:45:47.639Z,6.2
2018-09-28T02:46:47.849Z,5.9
2018-09-28T02:47:47.807Z,6.4
2018-09-28T02:48:47.929Z,5.9
2018-09-28T02:49:48.080Z,5.9
2018-09-28T02:50:48.047Z,6.7
2018-09-28T02:51:48.082Z,6.2
2018-09-28T02:52:48.219Z,5.3
2018-09-28T02:53:48.616Z,5.5
2018-09-28T02:54:48.536Z,5.6
2018-09-28T02:55:48.482Z,5.8
2018-09-28T02:56:48.627Z,5.6
2018-09-28T02:57:48.838Z,6.1
2018-09-28T02:58:48.959Z,6.6
2018-09-28T02:59:48.890Z,6.6
2018-09-28T03:00:48.984Z,6.5
2018-09-28T03:01:49.746Z,6
2018-09-28T03:02:49.365Z,6.5
2018-09-28T03:03:49.365Z,5.9
2018-09-28T03:05:49.431Z,7.4
2018-09-28T03:06:49.402Z,6.7
2018-09-28T03:07:49.379Z,6.4
2018-09-28T03:08:49.597Z,6.6
2018-09-28T03:09:49.670Z,6.6
2018-09-28T03:10:49.617Z,7.1
2018-09-28T03:11:49.704Z,6.5
2018-09-28T03:12:49.878Z,6.8
2018-09-28T03:13:49.977Z,7.1
2018-09-28T03:14:49.964Z,7
2018-09-28T03:15:50.078Z,6.9
2018-09-28T03:16:50.326Z,7
2018-09-28T03:17:50.307Z,7.7
2018-09-28T03:18:50.252Z,7.5
2018-09-28T03:19:50.477Z,7.3
2018-09-28T03:20:50.458Z,7.2
2018-09-28T03:21:50.756Z,6.7
2018-09-28T03:22:50.668Z,7.2
2018-09-28T03:23:50.882Z,7.6
2018-09-28T03:24:50.867Z,6.6
2018-09-28T03:25:51.254Z,7.2
2018-09-28T03:26:50.958Z,7.1
2018-09-28T03:27:51.185Z,7.4
2018-09-28T03:29:51.163Z,7.3
2018-09-28T03:30:51.116Z,6.6
2018-09-28T03:31:51.358Z,6.7
2018-09-28T03:32:51.463Z,7.3
2018-09-28T03:33:51.418Z,6.5
2018-09-28T03:34:51.540Z,6.3
2018-09-28T03:35:51.719Z,6.2
2018-09-28T03:36:51.711Z,7.1
2018-09-28T03:37:51.752Z,7.1
2018-09-28T03:38:51.909Z,6.5
2018-09-28T03:39:52.156Z,6.4
2018-09-28T03:40:52.229Z,6.9
2018-09-28T03:41:52.259Z,6.8
2018-09-28T03:42:52.368Z,6.5
2018-09-28T03:43:52.558Z,7.5
2018-09-28T03:44:52.714Z,7.3
2018-09-28T03:45:52.511Z,6.1
2018-09-28T03:46:52.616Z,7
2018-09-28T03:47:52.686Z,6.8
2018-09-28T03:48:52.854Z,7.2
2018-09-28T03:49:52.769Z,7.4
2018-09-28T03:50:52.889Z,7
2018-09-28T03:51:53.006Z,6.5
2018-09-28T03:52:53.188Z,6.9
2018-09-28T03:53:53.379Z,7.2
2018-09-28T03:54:53.359Z,6.6
2018-09-28T03:55:53.538Z,7
2018-09-28T03:56:53.634Z,6.9
2018-09-28T03:57:53.590Z,6.2
2018-09-28T03:58:53.750Z,6.1
2018-09-28T03:59:53.881Z,6.6
2018-09-28T04:00:53.898Z,6.9
2018-09-28T04:01:53.952Z,6.7
2018-09-28T04:02:54.109Z,6.9
2018-09-28T04:03:54.336Z,6.5
2018-09-28T04:04:54.512Z,7
2018-09-28T04:05:54.324Z,6.9
2018-09-28T04:06:54.459Z,7.1
2018-09-28T04:07:54.723Z,7
2018-09-28T04:09:54.713Z,6.9
2018-09-28T04:10:54.828Z,7.3
2018-09-28T04:11:55.068Z,6.5
2018-09-28T04:12:55.232Z,6.8
2018-09-28T04:13:55.096Z,7
2018-09-28T04:14:56.353Z,7.3
2018-09-28T04:15:56.325Z,7.1
2018-09-28T04:16:55.395Z,6.8
2018-09-28T04:17:55.335Z,7
2018-09-28T04:18:55.590Z,6.4
2018-09-28T04:19:55.677Z,7.5
2018-09-28T04:20:55.678Z,7.7
2018-09-28T04:21:55.816Z,7.4
2018-09-28T04:23:55.900Z,7.5
2018-09-28T04:24:55.901Z,7
2018-09-28T04:25:55.972Z,7.6
2018-09-28T04:27:56.241Z,7
2018-09-28T04:28:56.182Z,7.8
2018-09-28T04:29:56.348Z,7.3
2018-09-28T04:30:56.585Z,6.9
2018-09-28T04:31:56.651Z,7.7
2018-09-28T04:32:56.619Z,7.3
2018-09-28T04:33:56.747Z,7.1
2018-09-28T04:34:56.916Z,7.1
2018-09-28T04:35:57.225Z,7.2
2018-09-28T04:36:57.080Z,7.2
2018-09-28T04:37:57.016Z,6.6
2018-09-28T04:39:15.074Z,7.1
2018-09-28T04:39:57.341Z,6.7
2018-09-28T04:40:57.388Z,6.6
2018-09-28T04:41:57.555Z,7.6
2018-09-28T04:42:57.544Z,7.5
2018-09-28T04:43:57.743Z,7.1
2018-09-28T04:44:57.876Z,6.6
2018-09-28T04:46:57.916Z,6.3
2018-09-28T04:47:58.000Z,6.8
2018-09-28T04:48:58.061Z,7.3
2018-09-28T04:49:58.084Z,7
2018-09-28T04:50:58.197Z,6.5
2018-09-28T04:51:58.178Z,7.1
2018-09-28T04:52:58.132Z,7
2018-09-28T04:55:38.758Z,7
2018-09-28T04:57:19.889Z,7
2018-09-28T04:57:54.025Z,7.6
2018-09-28T04:58:35.941Z,7.8
2018-09-28T04:59:36.004Z,7.1
2018-09-28T05:01:54.218Z,7.1
2018-09-28T05:02:54.148Z,7.8
2018-09-28T05:03:36.301Z,6.9
2018-09-28T05:25:59.958Z,7
2018-09-28T05:27:15.968Z,7.5
2018-09-28T05:28:16.117Z,7
2018-09-28T05:29:16.151Z,7.4
2018-09-28T05:31:16.449Z,7.6
2018-09-28T05:32:34.495Z,7.2
2018-09-28T05:33:16.512Z,8.2
2018-09-28T05:34:34.524Z,7.7
2018-09-28T05:35:16.852Z,7.9
2018-09-28T05:36:34.683Z,7.8
2018-09-28T05:37:16.964Z,7.6
2018-09-28T05:38:16.875Z,7.8
2018-09-28T05:39:17.089Z,7.3
2018-09-28T05:40:17.171Z,8.7
2018-09-28T05:41:35.046Z,7.8
2018-09-28T05:42:17.138Z,8.1
2018-09-28T05:43:35.280Z,8
2018-09-28T05:44:17.611Z,8.6
2018-09-28T05:45:35.344Z,8.1
2018-09-28T05:46:17.518Z,8.7
2018-09-28T05:47:17.749Z,7.7
2018-09-28T05:48:17.766Z,8.8
2018-09-28T05:49:17.789Z,9.5
2018-09-28T05:51:18.137Z,8.6
2018-09-28T05:52:18.213Z,8.9
2018-09-28T05:53:18.200Z,8.5
2018-09-28T05:54:18.376Z,8.3
2018-09-28T05:55:18.580Z,7.9
2018-09-28T05:56:18.702Z,8.8
2018-09-28T05:57:18.699Z,8
2018-09-28T05:58:18.783Z,7.8
2018-09-28T05:59:18.926Z,8.2
2018-09-28T06:00:37.003Z,8.2
2018-09-28T06:01:19.020Z,8.1
2018-09-28T06:02:19.222Z,7.8
2018-09-28T06:03:19.246Z,8.1
2018-09-28T06:04:19.512Z,8.6
2018-09-28T06:05:19.687Z,8.2
2018-09-28T06:06:19.614Z,8.7
2018-09-28T06:07:19.741Z,9.4
2018-09-28T06:08:19.912Z,10.2
2018-09-28T06:09:20.183Z,12.3
2018-09-28T06:10:20.133Z,11.3
2018-09-28T06:11:20.145Z,10.5
2018-09-28T06:12:20.407Z,10.8
2018-09-28T06:13:20.493Z,8.9
2018-09-28T06:14:20.432Z,9
2018-09-28T06:15:20.578Z,8.6
2018-09-28T06:17:20.839Z,8.8
2018-09-28T06:18:20.809Z,9
2018-09-28T06:19:20.931Z,8.8
2018-09-28T06:20:21.099Z,8.9
2018-09-28T06:22:21.124Z,9.2
2018-09-28T06:23:21.325Z,8.5
2018-09-28T06:24:21.366Z,8.4
2018-09-28T06:25:21.348Z,8
2018-09-28T06:26:21.364Z,8.6
2018-09-28T06:27:21.457Z,9.3
2018-09-28T06:28:21.539Z,8.7
2018-09-28T06:29:39.493Z,9.2
2018-09-28T06:30:21.698Z,10
2018-09-28T06:31:21.897Z,7.9
2018-09-28T06:34:22.716Z,8.9
2018-09-28T06:35:21.822Z,9.5
2018-09-28T06:36:22.030Z,10
2018-09-28T06:37:22.067Z,8.8
2018-09-28T06:38:40.260Z,9.5
2018-09-28T06:39:40.161Z,9
2018-09-28T06:40:22.257Z,9.5
2018-09-28T06:41:22.405Z,8.9
2018-09-28T06:42:22.594Z,8.7
2018-09-28T06:43:22.703Z,9.1
2018-09-28T06:44:22.642Z,9.7
2018-09-28T06:45:22.745Z,9.6
2018-09-28T06:46:23.008Z,9.7
2018-09-28T06:47:40.919Z,9.1
2018-09-28T06:48:23.035Z,8.8
2018-09-28T06:49:23.082Z,9.2
2018-09-28T06:50:41.070Z,9.3
2018-09-28T06:51:23.784Z,9.3
2018-09-28T06:52:23.639Z,9
2018-09-28T06:53:23.623Z,8.7
2018-09-28T06:54:23.778Z,9.3
2018-09-28T06:55:23.822Z,9.1
2018-09-28T06:57:23.997Z,10
2018-09-28T06:58:24.124Z,9.3
2018-09-28T06:59:24.559Z,9.4
2018-09-28T07:00:24.656Z,9.5
2018-09-28T07:01:42.509Z,8.6
2018-09-28T07:02:24.623Z,10.1
2018-09-28T07:04:24.884Z,9
2018-09-28T07:05:24.875Z,8.5
2018-09-28T07:06:25.028Z,8.9
2018-09-28T07:07:25.093Z,8.8
2018-09-28T07:08:25.068Z,8.5
2018-09-28T07:09:25.076Z,8.5
2018-09-28T07:10:25.143Z,9
2018-09-28T07:11:25.374Z,8.5
2018-09-28T07:12:25.399Z,8.4
2018-09-28T07:13:25.330Z,8.7
2018-09-28T07:14:43.486Z,8.2
2018-09-28T07:15:25.767Z,8.4
2018-09-28T07:16:25.941Z,8.2
2018-09-28T07:17:25.791Z,7.9
2018-09-28T07:18:26.049Z,8.4
2018-09-28T07:19:26.204Z,7.9
2018-09-28T07:20:26.170Z,8.7
2018-09-28T07:21:26.185Z,8.3
2018-09-28T07:22:26.234Z,8.7
2018-09-28T07:23:26.210Z,9.2
2018-09-28T07:24:26.305Z,9
2018-09-28T07:25:26.259Z,9.1
2018-09-28T07:26:44.388Z,9.4
2018-09-28T07:27:26.527Z,8.8
2018-09-28T07:28:26.453Z,9.9
2018-09-28T07:29:26.647Z,9.7
2018-09-28T07:30:26.691Z,10.4
2018-09-28T07:31:26.783Z,10.8
2018-09-28T07:32:26.768Z,10.9
2018-09-28T07:33:44.638Z,10.6
2018-09-28T07:34:26.943Z,11.7
2018-09-28T07:35:44.848Z,12.2
2018-09-28T07:36:27.040Z,11.7
2018-09-28T07:37:27.133Z,13.3
2018-09-28T07:38:26.907Z,14.7
2018-09-28T07:39:27.071Z,13.6
2018-09-28T07:40:27.130Z,14.5
2018-09-28T07:41:27.235Z,14.3
2018-09-28T07:42:27.205Z,15.2
2018-09-28T07:43:27.349Z,15.3
2018-09-28T07:44:45.417Z,16.299999
2018-09-28T07:45:27.713Z,17
2018-09-28T07:46:27.750Z,16.700001
2018-09-28T07:47:27.785Z,16.9
2018-09-28T07:48:27.748Z,16.6
2018-09-28T07:49:27.921Z,16.299999
2018-09-28T07:50:28.101Z,15.9
2018-09-28T07:51:28.069Z,16.9
2018-09-28T07:52:28.275Z,17.299999
2018-09-28T07:53:28.296Z,18.200001
2018-09-28T07:54:28.516Z,18.5
2018-09-28T07:55:28.478Z,19.5
2018-09-28T07:56:28.587Z,18.4
2018-09-28T07:57:29.030Z,18.5
2018-09-28T07:59:28.844Z,19.200001
2018-09-28T08:00:28.975Z,19.299999
2018-09-28T08:01:29.134Z,19
2018-09-28T08:02:29.418Z,19.299999
2018-09-28T08:03:29.367Z,19.4
2018-09-28T08:04:29.488Z,19.4
2018-09-28T08:05:29.768Z,19.4
2018-09-28T08:07:29.815Z,21
2018-09-28T08:08:29.844Z,19.700001
2018-09-28T08:09:30.064Z,19.799999
2018-09-28T08:10:30.100Z,19.5
2018-09-28T08:11:30.067Z,20.299999
2018-09-28T08:12:30.265Z,20.4
2018-09-28T08:13:30.414Z,17.6
2018-09-28T08:14:30.470Z,20.299999
2018-09-28T08:15:30.478Z,19.799999
2018-09-28T08:16:30.630Z,19
2018-09-28T08:17:30.894Z,19.9
2018-09-28T08:18:30.886Z,20.200001
2018-09-28T08:19:30.842Z,19.5
2018-09-28T08:20:31.004Z,19.299999
2018-09-28T08:21:31.203Z,18.9
2018-09-28T08:22:31.153Z,19.4
2018-09-28T08:23:31.326Z,19.9
2018-09-28T08:24:31.398Z,18
2018-09-28T08:25:31.413Z,18.200001
2018-09-28T08:26:49.343Z,18.799999
2018-09-28T08:27:31.460Z,19.200001
2018-09-28T08:28:31.658Z,18.700001
2018-09-28T08:29:31.643Z,19.5
2018-09-28T08:30:31.682Z,19.200001
2018-09-28T08:31:31.760Z,19.1
2018-09-28T08:32:32.041Z,19.200001
2018-09-28T08:33:32.221Z,19
2018-09-28T08:36:12.715Z,19.200001
2018-09-28T08:36:28.736Z,19
2018-09-28T08:37:28.839Z,18.299999
2018-09-28T08:38:28.965Z,19.799999
2018-09-28T08:39:29.142Z,19.200001
2018-09-28T08:40:28.925Z,18.700001
2018-09-28T08:41:29.175Z,19
2018-09-28T08:43:29.277Z,18.1
2018-09-28T08:44:29.187Z,19.799999
2018-09-28T08:45:29.472Z,18
2018-09-28T08:46:29.493Z,17.799999
2018-09-28T08:47:47.366Z,18.1
2018-09-28T09:04:38.635Z,18
2018-09-28T09:05:12.469Z,18.299999
2018-09-28T09:05:54.586Z,20.1
2018-09-28T09:06:54.698Z,19.6
2018-09-28T09:07:54.936Z,18.5
2018-09-28T09:08:55.075Z,19
2018-09-28T09:09:55.072Z,18.6
2018-09-28T09:10:55.104Z,18.299999
2018-09-28T09:11:55.286Z,19.4
2018-09-28T09:12:55.414Z,18.4
2018-09-28T09:13:55.376Z,19.6
2018-09-28T09:14:55.566Z,20.1
2018-09-28T09:15:55.680Z,19.799999
2018-09-28T09:16:55.726Z,19
2018-09-28T09:17:55.734Z,19.4
2018-09-28T09:18:55.842Z,19.6
2018-09-28T09:19:55.947Z,20.1
2018-09-28T09:20:56.133Z,19.700001
2018-09-28T09:21:56.007Z,19.6
2018-09-28T09:22:56.025Z,19.200001
2018-09-28T09:23:56.363Z,19.9
2018-09-28T09:24:56.549Z,19.1
2018-09-28T09:25:56.274Z,18.700001
2018-09-28T09:26:56.410Z,18.799999
2018-09-28T09:27:56.783Z,19.299999
2018-09-28T09:28:56.824Z,19.700001
2018-09-28T09:29:56.625Z,18.9
2018-09-28T09:30:56.924Z,18.6
2018-09-28T09:31:57.254Z,17.6
2018-09-28T09:33:14.957Z,18.5
2018-09-28T09:33:57.097Z,18.6
2018-09-28T09:34:57.163Z,18
2018-09-28T09:35:57.249Z,18.700001
2018-09-28T09:36:57.541Z,18.4
2018-09-28T09:37:57.351Z,18.700001
2018-09-28T09:38:57.647Z,18.200001
2018-09-28T09:39:57.789Z,18.299999
2018-09-28T09:40:57.835Z,17.799999
2018-09-28T09:41:57.831Z,18.1
2018-09-28T09:42:57.999Z,18.1
2018-09-28T09:43:57.922Z,18.6
2018-09-28T09:44:57.974Z,17.6
2018-09-28T09:46:15.817Z,19.1
2018-09-28T09:46:58.110Z,18.799999
2018-09-28T09:47:58.265Z,18.9
2018-09-28T09:48:58.176Z,18.700001
2018-09-28T09:49:58.245Z,18.9
2018-09-28T09:51:16.142Z,18.200001
2018-09-28T09:52:58.399Z,18
2018-09-28T09:55:39.416Z,18.9
2018-09-28T09:56:13.277Z,19.200001
2018-09-28T09:56:55.674Z,18.799999
2018-09-28T09:57:55.595Z,18.799999
2018-09-28T09:58:55.639Z,19.299999
2018-09-28T10:01:25.913Z,18.799999
2018-09-28T10:01:41.948Z,19
2018-09-28T10:02:41.953Z,18.200001
2018-09-28T10:03:42.150Z,18.4
2018-09-28T10:04:42.213Z,18.1
2018-09-28T10:06:42.202Z,18.299999
2018-09-28T10:09:05.548Z,17.5
2018-09-28T10:09:21.511Z,17.799999
2018-09-28T10:10:21.802Z,16.9
2018-09-28T10:11:21.858Z,17.6
2018-09-28T10:12:21.948Z,18
2018-09-28T10:13:21.946Z,17.799999
2018-09-28T10:14:22.086Z,17.700001
2018-09-28T10:15:22.168Z,17.200001
2018-09-28T10:16:22.106Z,17.6
2018-09-28T10:17:22.373Z,17
2018-09-28T10:18:22.454Z,17.299999
2018-09-28T10:23:58.944Z,16.9
2018-09-28T10:24:15.058Z,16.799999
2018-09-28T10:25:15.088Z,17
2018-09-28T10:26:33.127Z,16.799999
2018-09-28T10:27:33.632Z,16.6
2018-09-28T10:28:15.406Z,17.5
2018-09-28T10:29:15.335Z,16.299999
2018-09-28T10:30:15.545Z,15.9
2018-09-28T10:31:33.557Z,15.8
2018-09-28T10:33:15.658Z,17.700001
2018-09-28T10:34:15.777Z,17.6
2018-09-28T10:35:16.097Z,15.2
2018-09-28T10:36:15.792Z,16.6
2018-09-28T10:37:15.939Z,16.6
2018-09-28T10:38:16.123Z,16.9
2018-09-28T10:39:16.117Z,16.700001
2018-09-28T10:41:56.947Z,17
2018-09-28T10:42:12.893Z,17.5
2018-09-28T10:43:13.235Z,15.8
2018-09-28T10:44:13.138Z,15.6
2018-09-28T10:45:31.086Z,16
2018-09-28T10:46:31.373Z,16
2018-09-28T10:48:31.349Z,16.1
2018-09-28T10:49:13.501Z,17.9
2018-09-28T10:52:31.657Z,16.799999
2018-09-28T10:53:13.862Z,17
2018-09-28T10:54:13.786Z,16.299999
2018-09-28T10:55:13.708Z,16.700001
2018-09-28T10:56:14.848Z,16.9
2018-09-28T10:57:14.249Z,16.700001
2018-09-28T10:58:32.820Z,16
2018-09-28T10:59:13.865Z,15.1
2018-09-28T11:00:14.059Z,15.9
2018-09-28T11:01:32.209Z,16.5
2018-09-28T11:02:14.276Z,16.700001
2018-09-28T11:03:14.335Z,16.6
2018-09-28T11:04:14.498Z,17.200001
2018-09-28T11:05:14.436Z,18.299999
2018-09-28T11:06:32.348Z,19.700001
2018-09-28T11:07:32.423Z,19.1
2018-09-28T11:08:14.735Z,18.6
2018-09-28T11:09:14.729Z,18.299999
2018-09-28T11:10:14.657Z,18
2018-09-28T11:11:14.779Z,18.6
2018-09-28T11:12:14.993Z,18.799999
2018-09-28T11:13:15.130Z,17.200001
2018-09-28T11:14:15.164Z,18.5
2018-09-28T11:15:15.146Z,19.1
2018-09-28T11:16:33.147Z,19.4
2018-09-28T11:18:33.300Z,19.5
2018-09-28T11:19:15.348Z,18.5
2018-09-28T11:20:15.443Z,19
2018-09-28T11:22:15.508Z,18.299999
2018-09-28T11:23:15.738Z,18
2018-09-28T11:24:15.819Z,16
2018-09-28T11:25:15.907Z,16.700001
2018-09-28T11:26:15.899Z,17.6
2018-09-28T11:27:33.911Z,16.6
2018-09-28T11:28:34.044Z,18.1
2018-09-28T11:29:16.225Z,16.700001
2018-09-28T11:30:16.224Z,17.5
2018-09-28T11:31:16.183Z,17.6
2018-09-28T11:32:16.345Z,17.9
2018-09-28T11:33:16.655Z,18
2018-09-28T11:35:16.708Z,16.4
2018-09-28T11:36:16.792Z,17.9
2018-09-28T11:37:16.866Z,17.200001
2018-09-28T11:38:16.845Z,17.5
2018-09-28T11:39:17.107Z,16.9
2018-09-28T11:40:35.245Z,16.299999
2018-09-28T11:41:35.073Z,16.1
2018-09-28T11:42:17.220Z,15.9
2018-09-28T11:43:17.393Z,15
2018-09-28T11:44:17.509Z,15.2
2018-09-28T11:45:17.340Z,15.5
2018-09-28T11:46:17.429Z,15.9
2018-09-28T11:47:17.735Z,15.1
2018-09-28T11:48:17.802Z,15.4
2018-09-28T11:49:17.866Z,14.2
2018-09-28T11:50:17.829Z,13.3
2018-09-28T11:51:18.047Z,13.4
2018-09-28T11:52:18.152Z,13.1
2018-09-28T11:53:18.130Z,13.8
2018-09-28T11:54:36.194Z,13.5
2018-09-28T11:55:18.317Z,13.3
2018-09-28T11:56:18.635Z,13
2018-09-28T11:57:18.715Z,14.3
2018-09-28T11:58:18.634Z,14.4
2018-09-28T12:00:18.811Z,15.1
2018-09-28T12:01:18.829Z,14.2
2018-09-28T12:03:59.818Z,16.1
2018-09-28T12:04:34.671Z,16
2018-09-28T12:07:15.511Z,13.9
2018-09-28T12:07:31.432Z,13.8
2018-09-28T12:08:49.378Z,15.4
2018-09-28T12:35:37.137Z,13.7
2018-09-28T12:36:29.057Z,13.6
2018-09-28T12:36:53.296Z,19.1
2018-09-28T12:38:11.061Z,19.5
2018-09-28T12:38:53.149Z,20
2018-09-28T12:40:11.138Z,19.299999
2018-09-28T12:40:53.403Z,19.200001
2018-09-28T12:41:53.488Z,18.200001
2018-09-28T12:42:53.404Z,19.299999
2018-09-28T12:43:53.567Z,18.799999
2018-09-28T12:44:53.599Z,17.1
2018-09-28T12:45:53.503Z,17.700001
2018-09-28T12:46:53.459Z,16.700001
2018-09-28T12:47:53.552Z,16.299999
2018-09-28T12:48:53.641Z,16.6
2018-09-28T12:49:53.742Z,16.799999
2018-09-28T12:50:53.796Z,15.9
2018-09-28T12:51:53.943Z,15.3
2018-09-28T12:53:12.104Z,16.1
2018-09-28T12:53:53.990Z,17
2018-09-28T12:54:54.082Z,15.7
2018-09-28T12:56:12.090Z,17.200001
2018-09-28T12:56:54.216Z,16.200001
2018-09-28T12:57:54.408Z,16
2018-09-28T12:58:54.479Z,15
2018-09-28T12:59:54.587Z,14.8
2018-09-28T13:00:54.890Z,15.4
2018-09-28T13:01:54.794Z,14.6
2018-09-28T13:02:54.886Z,14.4
2018-09-28T13:04:12.944Z,14.1
2018-09-28T13:04:55.451Z,15.8
